Time;durP1;ratioP1;P1;durP2;ratioP2;P2;SDS_P1;SDS_P2;PMS_P1;PMS_P2;Temp;Humidity;BMP_temperature;BMP_pressure;BME280_temperature;BME280_humidity;BME280_pressure;Samples;Min_cycle;Max_cycle;Signal;HPM_P1;HPM_P2
2023/09/29 00:00:39;;;;;;;;;;;15.70;99.90;;;;;;7321347;19;9462;-78
2023/09/29 00:03:08;;;;;;;;;;;15.70;99.90;;;;;;7324283;19;9454;-78
2023/09/29 00:05:37;;;;;;;;;;;15.60;99.90;;;;;;7323784;19;10154;-78
2023/09/29 00:08:07;;;;;;;;;;;15.60;99.90;;;;;;7318042;19;9424;-78
2023/09/29 00:10:39;;;;;;;;;;;15.60;99.90;;;;;;7319229;19;9256;-78
2023/09/29 00:13:09;;;;;;;;;;;15.60;99.90;;;;;;7322189;19;9187;-78
2023/09/29 00:29:26;;;;;;;;;;;15.50;99.90;;;;;;7310457;19;10539;-79
2023/09/29 00:32:16;;;;;;;;;;;15.60;99.90;;;;;;7315986;19;9289;-78
2023/09/29 00:34:45;;;;;;;;;;;15.50;99.90;;;;;;7322016;19;9296;-79
2023/09/29 00:37:15;;;;;;;;;;;15.60;99.90;;;;;;7320190;19;9209;-79
2023/09/29 00:39:43;;;;;;;;;;;15.60;99.90;;;;;;7314381;19;9178;-78
2023/09/29 00:42:12;;;;;;;;;;;15.60;99.90;;;;;;7320382;19;9248;-78
2023/09/29 00:44:44;;;;;;;;;;;15.60;99.90;;;;;;7322128;19;9079;-79
2023/09/29 00:47:15;;;;;;;;;;;15.70;99.90;;;;;;7321443;19;9307;-79
2023/09/29 00:49:46;;;;;;;;;;;15.70;99.90;;;;;;7319509;19;9499;-79
2023/09/29 00:52:16;;;;;;;;;;;15.70;99.90;;;;;;7319063;19;9114;-78
2023/09/29 00:54:47;;;;;;;;;;;15.70;99.90;;;;;;7318705;19;8944;-79
2023/09/29 00:57:16;;;;;;;;;;;15.70;99.90;;;;;;7321556;19;9190;-79
2023/09/29 00:59:49;;;;;;;;;;;15.70;99.90;;;;;;7316915;19;9595;-78
2023/09/29 01:02:18;;;;;;;;;;;15.70;99.90;;;;;;7317026;19;9151;-79
2023/09/29 01:04:48;;;;;;;;;;;15.70;99.90;;;;;;7321345;19;10270;-78
2023/09/29 01:07:19;;;;;;;;;;;15.70;99.90;;;;;;7321627;19;9442;-78
2023/09/29 01:09:48;;;;;;;;;;;15.70;99.90;;;;;;7315178;19;11002;-79
2023/09/29 01:12:27;;;;;;;;;;;15.70;99.90;;;;;;7315028;19;8944;-79
2023/09/29 01:15:00;;;;;;;;;;;15.70;99.90;;;;;;7315386;19;9470;-78
2023/09/29 01:17:29;;;;;;;;;;;15.70;99.90;;;;;;7319969;19;11200;-78
2023/09/29 01:19:58;;;;;;;;;;;15.70;99.90;;;;;;7319424;19;9359;-78
2023/09/29 01:22:30;;;;;;;;;;;15.60;99.90;;;;;;7317706;19;9470;-79
2023/09/29 01:25:05;;;;;;;;;;;15.60;99.90;;;;;;7317191;19;9752;-78
2023/09/29 01:27:55;;;;;;;;;;;15.60;99.90;;;;;;7317238;19;9488;-78
2023/09/29 01:30:25;;;;;;;;;;;15.60;99.90;;;;;;7319545;19;9256;-78
2023/09/29 01:32:57;;;;;;;;;;;15.60;99.90;;;;;;7316081;19;9316;-78
2023/09/29 01:35:27;;;;;;;;;;;15.60;99.90;;;;;;7320355;19;9499;-79
2023/09/29 01:37:58;;;;;;;;;;;15.60;99.90;;;;;;7323565;19;9467;-78
2023/09/29 01:40:30;;;;;;;;;;;15.50;99.90;;;;;;7323125;19;9162;-78
2023/09/29 01:42:59;;;;;;;;;;;15.50;99.90;;;;;;7325153;19;9178;-79
2023/09/29 01:45:32;;;;;;;;;;;15.50;99.90;;;;;;7323299;19;9819;-79
2023/09/29 01:48:02;;;;;;;;;;;15.50;99.90;;;;;;7324703;19;8944;-79
2023/09/29 01:50:32;;;;;;;;;;;15.50;99.90;;;;;;7324857;19;10142;-79
2023/09/29 01:53:02;;;;;;;;;;;15.60;99.90;;;;;;7323943;19;11186;-79
2023/09/29 01:55:34;;;;;;;;;;;15.60;99.90;;;;;;7319584;19;9470;-79
2023/09/29 01:58:03;;;;;;;;;;;15.60;99.90;;;;;;7326182;19;9591;-79
2023/09/29 02:00:32;;;;;;;;;;;15.50;99.90;;;;;;7324099;19;9168;-78
2023/09/29 02:03:06;;;;;;;;;;;15.60;99.90;;;;;;7322352;19;9329;-78
2023/09/29 02:05:35;;;;;;;;;;;15.50;99.90;;;;;;7324600;19;9357;-78
2023/09/29 02:08:06;;;;;;;;;;;15.50;99.90;;;;;;7322244;19;9302;-78
2023/09/29 02:10:38;;;;;;;;;;;15.60;99.90;;;;;;7321100;19;9005;-79
2023/09/29 02:13:07;;;;;;;;;;;15.60;99.90;;;;;;7325099;19;9196;-78
2023/09/29 02:15:37;;;;;;;;;;;15.60;99.90;;;;;;7326968;19;9122;-78
2023/09/29 02:18:09;;;;;;;;;;;15.60;99.90;;;;;;7324529;19;9358;-78
2023/09/29 02:20:42;;;;;;;;;;;15.70;99.90;;;;;;7323365;19;9167;-78
2023/09/29 02:23:11;;;;;;;;;;;15.70;99.90;;;;;;7321277;19;9255;-78
2023/09/29 02:25:43;;;;;;;;;;;15.70;99.90;;;;;;7325254;19;9222;-78
2023/09/29 02:28:12;;;;;;;;;;;15.70;99.90;;;;;;7325513;19;9224;-78
2023/09/29 02:30:41;;;;;;;;;;;15.70;99.90;;;;;;7324985;19;9432;-78
2023/09/29 02:33:11;;;;;;;;;;;15.70;99.90;;;;;;7321885;19;9242;-79
2023/09/29 02:35:40;;;;;;;;;;;15.70;99.90;;;;;;7323196;19;9537;-78
2023/09/29 02:38:09;;;;;;;;;;;15.70;99.90;;;;;;7321740;19;9943;-78
2023/09/29 02:40:38;;;;;;;;;;;15.70;99.90;;;;;;7321494;19;9241;-79
2023/09/29 02:43:31;;;;;;;;;;;15.70;99.90;;;;;;7320194;19;10148;-79
2023/09/29 02:46:00;;;;;;;;;;;15.70;99.90;;;;;;7323041;19;9261;-78
2023/09/29 02:48:30;;;;;;;;;;;15.70;99.90;;;;;;7317262;19;9281;-78
2023/09/29 02:50:59;;;;;;;;;;;15.70;99.90;;;;;;7320881;19;10435;-78
2023/09/29 02:53:27;;;;;;;;;;;15.70;99.90;;;;;;7320758;19;9468;-79
2023/09/29 02:55:56;;;;;;;;;;;15.70;99.90;;;;;;7321134;19;9302;-78
2023/09/29 02:58:25;;;;;;;;;;;15.70;99.90;;;;;;7323454;19;9534;-78
2023/09/29 03:00:57;;;;;;;;;;;15.70;99.90;;;;;;7322670;19;9316;-79
2023/09/29 03:03:26;;;;;;;;;;;15.70;99.90;;;;;;7321904;19;9233;-78
2023/09/29 03:05:55;;;;;;;;;;;15.80;99.90;;;;;;7320213;19;9124;-78
2023/09/29 03:08:24;;;;;;;;;;;15.80;99.90;;;;;;7320823;19;9547;-78
2023/09/29 03:10:53;;;;;;;;;;;15.80;99.90;;;;;;7319726;19;9509;-78
2023/09/29 03:13:22;;;;;;;;;;;15.80;99.90;;;;;;7322053;19;8945;-78
2023/09/29 03:15:51;;;;;;;;;;;15.80;99.90;;;;;;7324397;19;9219;-78
2023/09/29 03:18:24;;;;;;;;;;;15.90;99.90;;;;;;7323984;19;9414;-78
2023/09/29 03:20:53;;;;;;;;;;;15.90;99.90;;;;;;7317517;19;9249;-78
2023/09/29 03:23:22;;;;;;;;;;;15.80;99.90;;;;;;7320419;19;9167;-78
2023/09/29 03:25:52;;;;;;;;;;;15.80;99.90;;;;;;7324007;19;9199;-77
2023/09/29 03:28:21;;;;;;;;;;;15.80;99.90;;;;;;7321731;19;9123;-78
2023/09/29 03:30:49;;;;;;;;;;;15.80;99.90;;;;;;7321991;19;9264;-78
2023/09/29 03:33:19;;;;;;;;;;;15.80;99.90;;;;;;7322216;19;10433;-78
2023/09/29 03:35:51;;;;;;;;;;;15.80;99.90;;;;;;7320594;19;9490;-78
2023/09/29 03:38:20;;;;;;;;;;;15.90;99.90;;;;;;7320703;19;9247;-78
2023/09/29 03:40:50;;;;;;;;;;;15.80;99.90;;;;;;7321732;19;9536;-78
2023/09/29 03:43:19;;;;;;;;;;;15.90;99.90;;;;;;7320958;19;9642;-78
2023/09/29 03:45:49;;;;;;;;;;;15.80;99.90;;;;;;7320853;19;9430;-78
2023/09/29 03:48:18;;;;;;;;;;;15.80;99.90;;;;;;7321434;19;9515;-78
2023/09/29 03:50:51;;;;;;;;;;;15.80;99.90;;;;;;7321624;19;9229;-78
2023/09/29 03:53:21;;;;;;;;;;;15.90;99.90;;;;;;7320121;19;10313;-78
2023/09/29 03:55:52;;;;;;;;;;;15.80;99.90;;;;;;7320464;19;9235;-78
2023/09/29 03:58:21;;;;;;;;;;;15.90;99.90;;;;;;7322134;19;9465;-78
2023/09/29 04:00:50;;;;;;;;;;;15.90;99.90;;;;;;7321544;19;9219;-78
2023/09/29 04:03:19;;;;;;;;;;;15.90;99.90;;;;;;7320860;19;9746;-78
2023/09/29 04:05:50;;;;;;;;;;;15.90;99.90;;;;;;7322375;19;9127;-78
2023/09/29 04:08:19;;;;;;;;;;;15.90;99.90;;;;;;7319282;19;9225;-78
2023/09/29 04:10:49;;;;;;;;;;;15.80;99.90;;;;;;7317544;19;9310;-78
2023/09/29 04:13:18;;;;;;;;;;;15.90;99.90;;;;;;7323269;19;9140;-78
2023/09/29 04:15:47;;;;;;;;;;;15.90;99.90;;;;;;7323164;19;9225;-78
2023/09/29 04:18:16;;;;;;;;;;;15.90;99.90;;;;;;7321244;19;9453;-78
2023/09/29 04:20:44;;;;;;;;;;;15.90;99.90;;;;;;7322090;19;9151;-78
2023/09/29 04:23:16;;;;;;;;;;;15.90;99.90;;;;;;7318876;19;9372;-78
2023/09/29 04:25:46;;;;;;;;;;;15.90;99.90;;;;;;7322821;19;9641;-77
2023/09/29 04:28:15;;;;;;;;;;;16.00;99.90;;;;;;7324255;19;9246;-78
2023/09/29 04:30:44;;;;;;;;;;;16.00;99.90;;;;;;7320952;19;9470;-78
2023/09/29 04:33:13;;;;;;;;;;;16.00;99.90;;;;;;7318356;19;9683;-78
2023/09/29 04:35:43;;;;;;;;;;;16.00;99.90;;;;;;7320633;19;9280;-78
2023/09/29 04:38:12;;;;;;;;;;;16.00;99.90;;;;;;7318440;19;9283;-77
2023/09/29 04:40:44;;;;;;;;;;;15.90;99.90;;;;;;7318698;19;9554;-78
2023/09/29 04:43:12;;;;;;;;;;;16.00;99.90;;;;;;7320963;19;9202;-78
2023/09/29 04:45:41;;;;;;;;;;;16.00;99.90;;;;;;7318756;19;9507;-78
2023/09/29 04:48:11;;;;;;;;;;;16.10;99.90;;;;;;7318591;19;9170;-78
2023/09/29 04:50:42;;;;;;;;;;;16.10;99.90;;;;;;7319846;19;9243;-77
2023/09/29 04:53:11;;;;;;;;;;;16.10;99.90;;;;;;7320513;19;9238;-78
2023/09/29 04:55:43;;;;;;;;;;;16.10;99.90;;;;;;7318735;19;9474;-81
2023/09/29 04:58:12;;;;;;;;;;;16.10;99.90;;;;;;7317497;19;9241;-78
2023/09/29 05:00:42;;;;;;;;;;;16.10;99.90;;;;;;7313414;19;9277;-78
2023/09/29 05:03:12;;;;;;;;;;;16.10;99.90;;;;;;7315372;19;10362;-78
2023/09/29 05:05:41;;;;;;;;;;;16.10;99.90;;;;;;7319439;19;9254;-78
2023/09/29 05:08:10;;;;;;;;;;;16.10;99.90;;;;;;7316918;19;9221;-78
2023/09/29 05:10:39;;;;;;;;;;;16.20;99.90;;;;;;7317963;19;9314;-78
2023/09/29 05:13:11;;;;;;;;;;;16.20;99.90;;;;;;7318054;19;9745;-78
2023/09/29 05:15:40;;;;;;;;;;;16.30;99.90;;;;;;7316912;19;9520;-78
2023/09/29 05:18:09;;;;;;;;;;;16.30;99.90;;;;;;7316883;19;9462;-78
2023/09/29 05:20:38;;;;;;;;;;;16.30;99.90;;;;;;7316531;19;9360;-78
2023/09/29 05:23:07;;;;;;;;;;;16.30;99.90;;;;;;7319253;19;9273;-78
2023/09/29 05:25:36;;;;;;;;;;;16.30;99.90;;;;;;7319258;19;8944;-78
2023/09/29 05:28:06;;;;;;;;;;;16.30;99.90;;;;;;7318245;19;9727;-78
2023/09/29 05:30:37;;;;;;;;;;;16.40;99.90;;;;;;7319799;19;9226;-78
2023/09/29 05:33:07;;;;;;;;;;;16.30;99.90;;;;;;7314848;19;9297;-78
2023/09/29 05:35:36;;;;;;;;;;;16.40;99.90;;;;;;7317221;19;9554;-78
2023/09/29 05:38:06;;;;;;;;;;;16.40;99.90;;;;;;7316520;19;9329;-78
2023/09/29 05:40:36;;;;;;;;;;;16.40;99.90;;;;;;7317172;19;9249;-78
2023/09/29 05:43:09;;;;;;;;;;;16.50;99.90;;;;;;7317833;19;9649;-78
2023/09/29 05:45:41;;;;;;;;;;;16.50;99.90;;;;;;7316878;19;9265;-78
2023/09/29 05:48:10;;;;;;;;;;;16.50;99.90;;;;;;7315890;19;9747;-78
2023/09/29 05:50:39;;;;;;;;;;;16.50;99.90;;;;;;7316196;19;9245;-78
2023/09/29 05:53:08;;;;;;;;;;;16.50;99.90;;;;;;7309495;19;9471;-78
2023/09/29 05:55:37;;;;;;;;;;;16.50;99.90;;;;;;7311630;19;9295;-78
2023/09/29 05:58:06;;;;;;;;;;;16.60;99.90;;;;;;7309282;19;9241;-78
2023/09/29 06:00:36;;;;;;;;;;;16.60;99.90;;;;;;7313230;19;9237;-78
2023/09/29 06:03:08;;;;;;;;;;;16.60;99.90;;;;;;7318691;19;9574;-78
2023/09/29 06:05:37;;;;;;;;;;;16.60;99.90;;;;;;7318347;19;9206;-78
2023/09/29 06:08:07;;;;;;;;;;;16.60;99.90;;;;;;7318687;19;9237;-78
2023/09/29 06:10:37;;;;;;;;;;;16.60;99.90;;;;;;7315470;19;9448;-78
2023/09/29 06:13:07;;;;;;;;;;;16.60;99.90;;;;;;7314927;19;10033;-78
2023/09/29 06:15:35;;;;;;;;;;;16.60;99.90;;;;;;7318884;19;9234;-78
2023/09/29 06:18:07;;;;;;;;;;;16.60;99.90;;;;;;7316578;19;10021;-78
2023/09/29 06:20:37;;;;;;;;;;;16.60;99.90;;;;;;7318471;19;9476;-78
2023/09/29 06:23:07;;;;;;;;;;;16.70;99.90;;;;;;7316198;19;9543;-78
2023/09/29 06:25:36;;;;;;;;;;;16.70;99.90;;;;;;7324670;19;10155;-78
2023/09/29 06:28:25;;;;;;;;;;;16.70;99.90;;;;;;7322820;19;9247;-78
2023/09/29 06:30:55;;;;;;;;;;;16.60;99.90;;;;;;7320627;19;9487;-78
2023/09/29 06:33:27;;;;;;;;;;;16.60;99.90;;;;;;7323000;19;9314;-78
2023/09/29 06:35:56;;;;;;;;;;;16.60;99.90;;;;;;7325894;19;8952;-78
2023/09/29 06:38:28;;;;;;;;;;;16.60;99.90;;;;;;7326390;19;9301;-78
2023/09/29 06:41:17;;;;;;;;;;;16.70;99.90;;;;;;7322876;19;9583;-78
2023/09/29 06:43:46;;;;;;;;;;;16.70;99.90;;;;;;7325747;19;9289;-78
2023/09/29 06:46:15;;;;;;;;;;;16.70;99.90;;;;;;7324406;19;10455;-78
2023/09/29 06:48:47;;;;;;;;;;;16.70;99.90;;;;;;7322897;19;9273;-78
2023/09/29 06:51:16;;;;;;;;;;;16.70;99.90;;;;;;7324488;19;9173;-78
2023/09/29 06:53:45;;;;;;;;;;;16.80;99.90;;;;;;7325122;19;9134;-78
2023/09/29 06:56:14;;;;;;;;;;;16.80;99.90;;;;;;7324889;19;9263;-78
2023/09/29 06:58:43;;;;;;;;;;;16.80;99.90;;;;;;7322633;19;9471;-78
2023/09/29 07:01:12;;;;;;;;;;;16.80;99.90;;;;;;7323514;19;10175;-78
2023/09/29 07:03:41;;;;;;;;;;;16.80;99.90;;;;;;7325045;19;9138;-78
2023/09/29 07:06:13;;;;;;;;;;;16.80;99.90;;;;;;7324438;19;9344;-78
2023/09/29 07:08:42;;;;;;;;;;;16.80;99.90;;;;;;7313998;19;11495;-78
2023/09/29 07:11:11;;;;;;;;;;;16.80;99.90;;;;;;7304267;19;9524;-78
2023/09/29 07:13:40;;;;;;;;;;;16.80;99.90;;;;;;7303299;19;10887;-78
2023/09/29 07:16:09;;;;;;;;;;;16.90;99.90;;;;;;7306719;19;9796;-78
2023/09/29 07:18:38;;;;;;;;;;;16.90;99.90;;;;;;7304430;19;9824;-78
2023/09/29 07:21:30;;;;;;;;;;;16.90;99.90;;;;;;7303759;19;10258;-78
2023/09/29 07:23:59;;;;;;;;;;;17.00;99.90;;;;;;7307986;19;9237;-78
2023/09/29 07:26:28;;;;;;;;;;;17.10;99.90;;;;;;7318035;19;9291;-78
2023/09/29 07:29:01;;;;;;;;;;;17.10;99.90;;;;;;7314268;19;9478;-78
2023/09/29 07:31:37;;;;;;;;;;;17.10;99.90;;;;;;7322911;19;9224;-78
2023/09/29 07:34:07;;;;;;;;;;;17.20;99.90;;;;;;7321231;19;10183;-78
2023/09/29 07:36:39;;;;;;;;;;;17.20;99.90;;;;;;7322562;19;10937;-78
2023/09/29 07:39:09;;;;;;;;;;;17.40;99.90;;;;;;7323210;19;9231;-78
2023/09/29 07:41:38;;;;;;;;;;;17.40;99.90;;;;;;7318812;19;9214;-78
2023/09/29 07:44:08;;;;;;;;;;;17.40;99.90;;;;;;7319680;19;9444;-78
2023/09/29 07:46:37;;;;;;;;;;;17.50;99.90;;;;;;7318566;19;9431;-78
2023/09/29 07:49:06;;;;;;;;;;;17.60;99.90;;;;;;7317154;19;9269;-78
2023/09/29 07:51:58;;;;;;;;;;;17.70;99.90;;;;;;7315950;19;9181;-78
2023/09/29 07:54:27;;;;;;;;;;;18.10;99.90;;;;;;7321247;19;9474;-78
2023/09/29 07:56:57;;;;;;;;;;;18.30;99.90;;;;;;7317187;19;9319;-78
2023/09/29 07:59:26;;;;;;;;;;;18.50;99.90;;;;;;7314060;19;9505;-78
2023/09/29 08:01:57;;;;;;;;;;;18.60;99.90;;;;;;7316613;19;9273;-78
2023/09/29 08:04:26;;;;;;;;;;;18.70;99.90;;;;;;7313731;19;9795;-78
2023/09/29 08:06:58;;;;;;;;;;;18.80;99.90;;;;;;7308067;19;9528;-78
2023/09/29 08:09:27;;;;;;;;;;;18.90;99.90;;;;;;7319836;19;9617;-78
2023/09/29 08:11:57;;;;;;;;;;;18.90;99.90;;;;;;7321532;19;9273;-78
2023/09/29 08:14:26;;;;;;;;;;;18.90;99.90;;;;;;7317793;19;10659;-78
2023/09/29 08:16:55;;;;;;;;;;;18.90;99.90;;;;;;7317458;19;9557;-78
2023/09/29 08:19:24;;;;;;;;;;;18.90;99.90;;;;;;7315028;19;9482;-78
2023/09/29 08:21:53;;;;;;;;;;;18.90;99.90;;;;;;7317286;19;9284;-78
2023/09/29 08:24:24;;;;;;;;;;;18.80;99.90;;;;;;7319080;19;9649;-78
2023/09/29 08:26:55;;;;;;;;;;;18.80;99.90;;;;;;7314989;19;9254;-78
2023/09/29 08:29:24;;;;;;;;;;;18.90;99.90;;;;;;7318428;19;9202;-78
2023/09/29 08:31:53;;;;;;;;;;;19.00;99.90;;;;;;7317498;19;9478;-78
2023/09/29 08:34:22;;;;;;;;;;;19.20;99.90;;;;;;7315696;19;9338;-78
2023/09/29 08:36:52;;;;;;;;;;;19.20;99.90;;;;;;7307128;19;9580;-78
2023/09/29 08:39:24;;;;;;;;;;;19.40;99.90;;;;;;7311157;19;9279;-77
2023/09/29 08:42:03;;;;;;;;;;;19.40;99.90;;;;;;7322421;19;8944;-73
2023/09/29 08:44:32;;;;;;;;;;;19.40;99.90;;;;;;7318797;19;9304;-73
2023/09/29 08:47:04;;;;;;;;;;;19.50;99.90;;;;;;7317428;19;9249;-72
2023/09/29 08:49:35;;;;;;;;;;;19.60;99.90;;;;;;7318474;19;9547;-69
2023/09/29 08:52:07;;;;;;;;;;;19.60;99.90;;;;;;7307946;19;8996;-79
2023/09/29 08:54:59;;;;;;;;;;;19.60;99.90;;;;;;7282211;19;10475;-79
2023/09/29 08:57:30;;;;;;;;;;;19.60;99.90;;;;;;7311662;19;9274;-79
2023/09/29 09:00:01;;;;;;;;;;;19.60;99.90;;;;;;7318969;19;9568;-78
2023/09/29 09:02:30;;;;;;;;;;;19.70;99.90;;;;;;7318223;19;9234;-79
2023/09/29 09:04:59;;;;;;;;;;;19.80;99.90;;;;;;7319089;19;9282;-80
2023/09/29 09:07:28;;;;;;;;;;;19.80;99.90;;;;;;7318002;19;9226;-80
2023/09/29 09:09:59;;;;;;;;;;;19.90;99.90;;;;;;7310474;19;9524;-79
2023/09/29 09:12:35;;;;;;;;;;;20.10;99.90;;;;;;7317325;19;9819;-80
2023/09/29 09:15:06;;;;;;;;;;;20.10;99.90;;;;;;7318091;19;9486;-80
2023/09/29 09:17:36;;;;;;;;;;;20.30;99.90;;;;;;7316585;19;9753;-81
2023/09/29 09:20:07;;;;;;;;;;;20.40;99.90;;;;;;7320254;19;9747;-81
2023/09/29 09:22:38;;;;;;;;;;;20.50;99.90;;;;;;7318317;19;9251;-80
2023/09/29 09:25:12;;;;;;;;;;;20.60;99.90;;;;;;7319565;19;9429;-82
2023/09/29 09:27:42;;;;;;;;;;;20.70;99.90;;;;;;7319339;19;9261;-78
2023/09/29 09:30:23;;;;;;;;;;;20.80;99.90;;;;;;7317919;19;9226;-78
2023/09/29 09:32:52;;;;;;;;;;;20.90;99.90;;;;;;7319250;19;9324;-80
2023/09/29 09:35:28;;;;;;;;;;;21.10;99.90;;;;;;7311407;19;9678;-80
2023/09/29 09:37:59;;;;;;;;;;;21.10;99.90;;;;;;7287021;19;9387;-82
2023/09/29 09:40:32;;;;;;;;;;;21.20;99.90;;;;;;7290562;19;9366;-80
2023/09/29 09:43:03;;;;;;;;;;;21.30;99.90;;;;;;7298479;19;9518;-81
2023/09/29 09:45:39;;;;;;;;;;;21.40;99.90;;;;;;7297539;19;9130;-80
2023/09/29 09:48:10;;;;;;;;;;;21.40;99.90;;;;;;7291361;19;9123;-80
2023/09/29 09:50:44;;;;;;;;;;;21.50;99.90;;;;;;7291323;19;9483;-81
2023/09/29 09:53:14;;;;;;;;;;;21.50;99.90;;;;;;7290005;19;9838;-76
2023/09/29 09:55:50;;;;;;;;;;;21.50;99.90;;;;;;7290594;19;9590;-75
2023/09/29 09:58:21;;;;;;;;;;;21.60;99.90;;;;;;7301928;19;9766;-75
2023/09/29 10:00:53;;;;;;;;;;;21.60;99.90;;;;;;7299789;19;9499;-75
2023/09/29 10:03:23;;;;;;;;;;;21.60;99.90;;;;;;7297157;19;11452;-75
2023/09/29 10:05:55;;;;;;;;;;;21.60;99.90;;;;;;7293679;19;9602;-75
2023/09/29 10:08:30;;;;;;;;;;;21.60;99.90;;;;;;7300232;19;9258;-76
2023/09/29 10:11:13;;;;;;;;;;;21.60;99.90;;;;;;7296343;19;10471;-76
2023/09/29 10:13:44;;;;;;;;;;;21.70;99.90;;;;;;7297192;19;9228;-75
2023/09/29 10:16:23;;;;;;;;;;;21.80;99.90;;;;;;7295096;19;10699;-76
2023/09/29 10:19:16;;;;;;;;;;;21.90;99.90;;;;;;7285363;19;10353;-76
2023/09/29 10:21:49;;;;;;;;;;;21.80;99.90;;;;;;7289662;19;9335;-74
2023/09/29 10:24:28;;;;;;;;;;;21.80;99.90;;;;;;7294713;19;9408;-74
2023/09/29 10:27:04;;;;;;;;;;;21.80;99.90;;;;;;7299791;19;9324;-73
2023/09/29 10:29:35;;;;;;;;;;;21.80;99.90;;;;;;7309339;19;9269;-74
2023/09/29 10:32:15;;;;;;;;;;;21.90;99.90;;;;;;7295221;19;10150;-73
2023/09/29 10:35:11;;;;;;;;;;;21.90;99.90;;;;;;7302386;19;10860;-74
2023/09/29 10:37:41;;;;;;;;;;;22.00;99.90;;;;;;7291933;19;9335;-74
2023/09/29 10:40:21;;;;;;;;;;;22.00;99.90;;;;;;7295958;19;9716;-74
2023/09/29 10:42:56;;;;;;;;;;;22.00;99.90;;;;;;7296453;19;10570;-75
2023/09/29 10:45:36;;;;;;;;;;;21.90;99.90;;;;;;7295000;19;9380;-75
2023/09/29 10:48:08;;;;;;;;;;;21.90;99.90;;;;;;7294751;19;9490;-74
2023/09/29 10:50:45;;;;;;;;;;;21.80;99.90;;;;;;7295468;19;9241;-75
2023/09/29 10:53:15;;;;;;;;;;;21.70;99.90;;;;;;7294184;19;10364;-74
2023/09/29 10:55:46;;;;;;;;;;;21.70;99.90;;;;;;7310493;19;9573;-74
2023/09/29 10:58:21;;;;;;;;;;;21.70;99.90;;;;;;7310454;19;9376;-73
2023/09/29 11:00:53;;;;;;;;;;;21.60;99.90;;;;;;7306235;19;9990;-74
2023/09/29 11:03:42;;;;;;;;;;;21.60;99.90;;;;;;7316198;19;9544;-74
2023/09/29 11:06:31;;;;;;;;;;;21.50;99.90;;;;;;7313938;19;10736;-74
2023/09/29 11:09:01;;;;;;;;;;;21.50;99.90;;;;;;7312071;19;9264;-74
2023/09/29 11:11:39;;;;;;;;;;;21.40;99.90;;;;;;7311202;19;10147;-74
2023/09/29 11:14:10;;;;;;;;;;;21.30;99.90;;;;;;7319292;19;9680;-74
2023/09/29 11:16:39;;;;;;;;;;;21.30;99.90;;;;;;7318380;19;9185;-74
2023/09/29 11:19:15;;;;;;;;;;;21.30;99.90;;;;;;7315724;19;9650;-73
2023/09/29 11:21:44;;;;;;;;;;;21.30;99.90;;;;;;7316485;19;9245;-74
2023/09/29 11:24:18;;;;;;;;;;;21.20;99.90;;;;;;7318760;19;9595;-73
2023/09/29 11:26:51;;;;;;;;;;;21.20;99.90;;;;;;7314398;19;9395;-77
2023/09/29 11:29:30;;;;;;;;;;;21.20;99.90;;;;;;7312529;19;9155;-77
2023/09/29 11:32:00;;;;;;;;;;;21.20;99.90;;;;;;7311563;19;9221;-77
2023/09/29 11:34:31;;;;;;;;;;;21.20;99.90;;;;;;7318061;19;9215;-77
2023/09/29 11:37:00;;;;;;;;;;;21.20;99.90;;;;;;7317600;19;10710;-77
2023/09/29 11:39:30;;;;;;;;;;;21.20;99.90;;;;;;7307527;19;10150;-77
2023/09/29 11:41:59;;;;;;;;;;;21.20;99.90;;;;;;7309280;19;11492;-77
2023/09/29 11:44:31;;;;;;;;;;;21.20;99.90;;;;;;7316470;19;9233;-77
2023/09/29 11:47:00;;;;;;;;;;;21.10;99.90;;;;;;7317238;19;10617;-77
2023/09/29 11:49:29;;;;;;;;;;;21.00;99.90;;;;;;7319880;19;9216;-77
2023/09/29 11:51:58;;;;;;;;;;;21.00;99.90;;;;;;7319068;19;9275;-78
2023/09/29 11:54:27;;;;;;;;;;;20.90;99.90;;;;;;7313451;19;9240;-78
2023/09/29 11:56:56;;;;;;;;;;;20.90;99.90;;;;;;7316136;19;9464;-77
2023/09/29 11:59:25;;;;;;;;;;;20.90;99.90;;;;;;7310735;19;9942;-77
2023/09/29 12:01:56;;;;;;;;;;;20.90;99.90;;;;;;7307049;19;9234;-77
2023/09/29 12:04:25;;;;;;;;;;;21.00;99.90;;;;;;7303658;19;9115;-77
2023/09/29 12:06:54;;;;;;;;;;;21.10;99.90;;;;;;7314093;19;9491;-77
2023/09/29 12:09:24;;;;;;;;;;;21.20;99.90;;;;;;7314346;19;9275;-78
2023/09/29 12:11:53;;;;;;;;;;;21.30;99.90;;;;;;7316700;19;9230;-77
2023/09/29 12:14:23;;;;;;;;;;;21.30;99.90;;;;;;7312042;19;9273;-77
2023/09/29 12:16:53;;;;;;;;;;;21.40;99.90;;;;;;7314204;19;9543;-77
2023/09/29 12:19:24;;;;;;;;;;;21.40;99.90;;;;;;7320063;19;9260;-78
2023/09/29 12:21:55;;;;;;;;;;;21.40;99.90;;;;;;7318626;19;10133;-74
2023/09/29 12:24:24;;;;;;;;;;;21.30;99.90;;;;;;7304439;19;9253;-74
2023/09/29 12:27:13;;;;;;;;;;;21.30;99.90;;;;;;7314832;19;9541;-76
2023/09/29 12:29:42;;;;;;;;;;;21.30;99.90;;;;;;7320305;19;9198;-75
2023/09/29 12:32:11;;;;;;;;;;;21.20;99.90;;;;;;7313059;19;9271;-75
2023/09/29 12:34:43;;;;;;;;;;;21.20;99.90;;;;;;7303683;19;10248;-75
2023/09/29 12:37:19;;;;;;;;;;;21.20;99.90;;;;;;7306241;19;9556;-75
2023/09/29 12:39:49;;;;;;;;;;;21.20;99.90;;;;;;7305749;19;9236;-71
2023/09/29 12:42:40;;;;;;;;;;;21.20;99.90;;;;;;7317168;19;9228;-73
2023/09/29 12:45:11;;;;;;;;;;;21.10;99.90;;;;;;7303873;19;9541;-73
2023/09/29 12:47:40;;;;;;;;;;;21.10;99.90;;;;;;7313433;19;9583;-74
2023/09/29 12:50:13;;;;;;;;;;;21.10;99.90;;;;;;7322428;19;9214;-73
2023/09/29 12:52:44;;;;;;;;;;;21.20;99.90;;;;;;7322218;19;9263;-74
2023/09/29 12:55:14;;;;;;;;;;;21.20;99.90;;;;;;7317657;19;8998;-72
2023/09/29 12:57:44;;;;;;;;;;;21.30;99.90;;;;;;7320736;19;9524;-74
2023/09/29 13:00:19;;;;;;;;;;;21.40;99.90;;;;;;7311062;19;9466;-74
2023/09/29 13:02:51;;;;;;;;;;;21.30;99.90;;;;;;7299498;19;9397;-73
2023/09/29 13:05:23;;;;;;;;;;;21.30;99.90;;;;;;7310548;19;9233;-73
2023/09/29 13:07:53;;;;;;;;;;;21.30;99.90;;;;;;7317681;19;9467;-75
2023/09/29 13:10:22;;;;;;;;;;;21.20;99.90;;;;;;7310101;19;9571;-74
2023/09/29 13:12:54;;;;;;;;;;;21.30;99.90;;;;;;7317255;19;9473;-73
2023/09/29 13:15:25;;;;;;;;;;;21.30;99.90;;;;;;7318920;19;9274;-72
2023/09/29 13:17:55;;;;;;;;;;;21.30;99.90;;;;;;7321155;19;8944;-74
2023/09/29 13:20:26;;;;;;;;;;;21.10;99.90;;;;;;7316587;19;9440;-78
2023/09/29 13:22:55;;;;;;;;;;;20.90;99.90;;;;;;7316566;19;9292;-75
2023/09/29 13:25:24;;;;;;;;;;;20.60;99.90;;;;;;7315942;19;10726;-73
2023/09/29 13:27:53;;;;;;;;;;;20.50;99.90;;;;;;7318397;19;9472;-73
2023/09/29 13:30:22;;;;;;;;;;;20.00;99.90;;;;;;7316345;19;9260;-73
2023/09/29 13:33:11;;;;;;;;;;;19.80;99.90;;;;;;7320344;19;9167;-77
2023/09/29 13:35:42;;;;;;;;;;;19.20;99.90;;;;;;7322193;19;9258;-73
2023/09/29 13:38:12;;;;;;;;;;;18.80;99.90;;;;;;7317982;19;9262;-73
2023/09/29 13:40:41;;;;;;;;;;;18.60;99.90;;;;;;7315297;19;9259;-73
2023/09/29 13:43:10;;;;;;;;;;;18.30;99.90;;;;;;7315455;19;9423;-75
2023/09/29 13:45:40;;;;;;;;;;;18.20;99.90;;;;;;7316481;19;11950;-76
2023/09/29 13:48:09;;;;;;;;;;;18.00;99.90;;;;;;7315290;19;9227;-77
2023/09/29 13:50:38;;;;;;;;;;;17.90;99.90;;;;;;7318776;19;9307;-75
2023/09/29 13:53:09;;;;;;;;;;;18.00;99.90;;;;;;7316112;19;9368;-75
2023/09/29 13:55:39;;;;;;;;;;;18.10;99.90;;;;;;7316245;19;10615;-74
2023/09/29 13:58:08;;;;;;;;;;;17.90;99.90;;;;;;7317130;19;11034;-74
2023/09/29 14:00:37;;;;;;;;;;;17.90;99.90;;;;;;7316484;19;11177;-75
2023/09/29 14:03:06;;;;;;;;;;;17.80;99.90;;;;;;7318006;19;11254;-75
2023/09/29 14:05:41;;;;;;;;;;;17.80;99.90;;;;;;7307085;19;9523;-76
2023/09/29 14:08:12;;;;;;;;;;;17.60;99.90;;;;;;7312326;19;9288;-76
2023/09/29 14:10:41;;;;;;;;;;;17.60;99.90;;;;;;7310728;19;9407;-76
2023/09/29 14:13:11;;;;;;;;;;;17.50;99.90;;;;;;7318127;19;9391;-76
2023/09/29 14:15:40;;;;;;;;;;;17.60;99.90;;;;;;7318713;19;9384;-76
2023/09/29 14:18:09;;;;;;;;;;;17.60;99.90;;;;;;7320105;19;10522;-76
2023/09/29 14:20:38;;;;;;;;;;;17.50;99.90;;;;;;7320865;19;9226;-73
2023/09/29 14:23:09;;;;;;;;;;;17.60;99.90;;;;;;7321721;19;9179;-73
2023/09/29 14:25:41;;;;;;;;;;;17.60;99.90;;;;;;7323875;19;9120;-74
2023/09/29 14:28:10;;;;;;;;;;;17.50;99.90;;;;;;7326890;19;10813;-74
2023/09/29 14:30:40;;;;;;;;;;;17.40;99.90;;;;;;7321736;19;9452;-73
2023/09/29 14:33:09;;;;;;;;;;;17.40;99.90;;;;;;7321125;19;9153;-73
2023/09/29 14:35:38;;;;;;;;;;;17.50;99.90;;;;;;7319235;19;9490;-73
2023/09/29 14:38:07;;;;;;;;;;;17.50;99.90;;;;;;7325647;19;10685;-73
2023/09/29 14:40:36;;;;;;;;;;;17.60;99.90;;;;;;7326792;19;9249;-73
2023/09/29 14:43:07;;;;;;;;;;;18.00;99.90;;;;;;7326869;19;9253;-73
2023/09/29 14:45:36;;;;;;;;;;;18.20;99.90;;;;;;7325731;19;9156;-75
2023/09/29 14:48:08;;;;;;;;;;;18.40;99.90;;;;;;7325130;19;9300;-76
2023/09/29 14:50:41;;;;;;;;;;;18.30;99.90;;;;;;7326574;19;9529;-75
2023/09/29 14:53:10;;;;;;;;;;;18.30;99.90;;;;;;7326006;19;9466;-76
2023/09/29 14:55:40;;;;;;;;;;;18.20;99.90;;;;;;7326147;19;10597;-76
2023/09/29 14:58:11;;;;;;;;;;;18.30;99.90;;;;;;7325778;19;9269;-76
2023/09/29 15:00:44;;;;;;;;;;;18.30;99.90;;;;;;7326443;19;9506;-76
2023/09/29 15:03:13;;;;;;;;;;;18.10;99.90;;;;;;7326412;19;9418;-76
2023/09/29 15:05:42;;;;;;;;;;;18.00;99.90;;;;;;7324121;19;9271;-75